createdAt,value
2022-09-15T00:01:06.018Z,16.30
2022-09-15T00:03:32.980Z,16.30
2022-09-15T00:05:59.589Z,16.30
2022-09-15T00:08:26.467Z,16.30
2022-09-15T00:11:27.433Z,16.30
2022-09-15T00:13:56.393Z,16.30
2022-09-15T00:16:25.406Z,16.30
2022-09-15T00:18:52.941Z,16.30
2022-09-15T00:21:24.675Z,16.30
2022-09-15T00:23:51.642Z,16.30
2022-09-15T00:26:23.652Z,16.30
2022-09-15T00:28:51.680Z,16.30
2022-09-15T00:31:26.033Z,16.30
2022-09-15T00:33:56.638Z,16.30
2022-09-15T00:36:25.593Z,16.30
2022-09-15T00:38:52.974Z,16.30
2022-09-15T00:41:22.969Z,16.30
2022-09-15T00:43:58.185Z,16.30
2022-09-15T00:46:35.489Z,16.30
2022-09-15T00:49:15.897Z,16.30
2022-09-15T00:51:58.350Z,16.30
2022-09-15T00:54:43.016Z,16.30
2022-09-15T00:57:26.885Z,16.20
2022-09-15T00:59:57.077Z,16.30
2022-09-15T01:02:30.534Z,16.30
2022-09-15T01:05:00.869Z,16.30
2022-09-15T01:07:38.749Z,16.30
2022-09-15T01:10:15.243Z,16.30
2022-09-15T01:12:42.849Z,16.30
2022-09-15T01:15:09.643Z,16.20
2022-09-15T01:18:07.974Z,16.20
2022-09-15T01:20:49.790Z,16.20
2022-09-15T01:23:42.601Z,16.10
2022-09-15T01:26:46.945Z,16.20
2022-09-15T01:29:41.172Z,16.10
2022-09-15T01:33:04.394Z,16.10
2022-09-15T01:36:00.374Z,16.10
2022-09-15T01:38:56.664Z,16.10
2022-09-15T01:41:50.585Z,16.10
2022-09-15T01:44:29.534Z,16.10
2022-09-15T01:47:03.349Z,16.20
2022-09-15T01:49:37.858Z,16.20
2022-09-15T01:52:05.502Z,16.20
2022-09-15T01:54:48.938Z,16.20
2022-09-15T01:57:17.231Z,16.20
2022-09-15T01:59:44.501Z,16.20
2022-09-15T02:02:22.579Z,16.10
2022-09-15T02:04:55.473Z,16.10
2022-09-15T02:07:45.316Z,16.10
2022-09-15T02:10:24.706Z,16.10
2022-09-15T02:13:01.576Z,16.00
2022-09-15T02:15:35.742Z,16.00
2022-09-15T02:18:05.810Z,16.00
2022-09-15T02:20:51.815Z,15.90
2022-09-15T02:23:28.650Z,15.90
2022-09-15T02:26:04.907Z,15.90
2022-09-15T02:28:36.218Z,15.90
2022-09-15T02:31:08.315Z,15.80
2022-09-15T02:33:41.148Z,15.70
2022-09-15T02:36:10.903Z,15.70
2022-09-15T02:38:44.034Z,15.70
2022-09-15T02:41:12.406Z,15.70
2022-09-15T02:43:49.130Z,15.70
2022-09-15T02:46:18.733Z,15.70
2022-09-15T02:48:48.029Z,15.60
2022-09-15T02:51:17.252Z,15.60
2022-09-15T02:53:45.545Z,15.60
2022-09-15T02:56:12.863Z,15.60
2022-09-15T02:58:39.425Z,15.70
2022-09-15T03:01:10.109Z,15.60
2022-09-15T03:03:41.028Z,15.50
2022-09-15T03:06:16.321Z,15.50
2022-09-15T03:08:48.359Z,15.50
2022-09-15T03:11:15.968Z,15.50
2022-09-15T03:13:43.014Z,15.50
2022-09-15T03:16:15.698Z,15.50
2022-09-15T03:18:42.810Z,15.50
2022-09-15T03:21:13.166Z,15.40
2022-09-15T03:23:41.033Z,15.40
2022-09-15T03:26:09.383Z,15.40
2022-09-15T03:28:38.039Z,15.40
2022-09-15T03:31:07.372Z,15.40
2022-09-15T03:33:34.398Z,15.40
2022-09-15T03:36:01.291Z,15.30
2022-09-15T03:38:27.882Z,15.30
2022-09-15T03:41:06.310Z,15.30
2022-09-15T03:43:33.694Z,15.40
2022-09-15T03:46:01.249Z,15.30
2022-09-15T03:48:30.970Z,15.30
2022-09-15T03:50:57.817Z,15.20
2022-09-15T03:53:24.806Z,15.20
2022-09-15T03:55:52.439Z,15.30
2022-09-15T03:58:19.710Z,15.30
2022-09-15T04:00:46.810Z,15.30
2022-09-15T04:03:14.175Z,15.30
2022-09-15T04:05:41.989Z,15.30
2022-09-15T04:08:12.692Z,15.30
2022-09-15T04:10:41.117Z,15.20
2022-09-15T04:13:08.395Z,15.20
2022-09-15T04:15:35.014Z,15.20
2022-09-15T04:18:01.699Z,15.20
2022-09-15T04:20:28.284Z,15.20
2022-09-15T04:22:54.907Z,15.20
2022-09-15T04:25:22.567Z,15.20
2022-09-15T04:27:49.222Z,15.20
2022-09-15T04:30:15.853Z,15.30
2022-09-15T04:32:42.492Z,15.20
2022-09-15T04:35:09.747Z,15.20
2022-09-15T04:37:36.426Z,15.20
2022-09-15T04:40:03.403Z,15.20
2022-09-15T04:42:30.960Z,15.20
2022-09-15T04:44:58.021Z,15.20
2022-09-15T04:47:24.644Z,15.20
2022-09-15T04:49:51.245Z,15.20
2022-09-15T04:52:17.843Z,15.20
2022-09-15T04:54:44.666Z,15.10
2022-09-15T04:57:11.867Z,15.20
2022-09-15T04:59:38.475Z,15.10
2022-09-15T05:02:05.084Z,15.10
2022-09-15T05:04:31.815Z,15.10
2022-09-15T05:06:58.459Z,15.00
2022-09-15T05:09:26.318Z,15.00
2022-09-15T05:11:53.082Z,15.00
2022-09-15T05:14:19.950Z,14.90
2022-09-15T05:16:46.527Z,14.90
2022-09-15T05:19:13.175Z,14.80
2022-09-15T05:21:39.954Z,14.80
2022-09-15T05:24:06.994Z,14.80
2022-09-15T05:26:33.622Z,14.80
2022-09-15T05:29:00.264Z,14.70
2022-09-15T05:31:33.794Z,14.70
2022-09-15T05:34:04.210Z,14.60
2022-09-15T05:36:31.799Z,14.60
2022-09-15T05:38:58.637Z,14.50
2022-09-15T05:41:27.196Z,14.60
2022-09-15T05:43:56.807Z,14.60
2022-09-15T05:46:26.004Z,14.70
2022-09-15T05:48:56.633Z,14.60
2022-09-15T05:51:23.947Z,14.60
2022-09-15T05:53:50.868Z,14.60
2022-09-15T05:56:18.322Z,14.70
2022-09-15T05:58:47.873Z,14.80
2022-09-15T06:01:21.341Z,14.70
2022-09-15T06:03:49.042Z,14.70
2022-09-15T06:06:16.497Z,14.70
2022-09-15T06:08:50.079Z,14.70
2022-09-15T06:11:22.871Z,14.80
2022-09-15T06:13:49.923Z,14.90
2022-09-15T06:16:20.339Z,15.00
2022-09-15T06:18:49.436Z,15.00
2022-09-15T06:21:20.302Z,15.10
2022-09-15T06:23:55.589Z,15.20
2022-09-15T06:26:22.203Z,15.30
2022-09-15T06:28:55.467Z,15.50
2022-09-15T06:31:23.621Z,15.60
2022-09-15T06:33:53.810Z,15.70
2022-09-15T06:36:23.189Z,15.90
2022-09-15T06:38:51.523Z,16.10
2022-09-15T06:41:18.530Z,16.20
2022-09-15T06:43:46.414Z,16.50
2022-09-15T06:46:25.294Z,16.70
2022-09-15T06:48:55.542Z,17.00
2022-09-15T06:51:25.545Z,17.40
2022-09-15T06:53:54.068Z,17.70
2022-09-15T06:56:23.113Z,17.80
2022-09-15T06:58:50.064Z,17.80
2022-09-15T07:01:26.308Z,17.80
2022-09-15T07:03:53.818Z,18.10
2022-09-15T07:06:21.316Z,18.70
2022-09-15T07:08:49.730Z,19.50
2022-09-15T07:11:18.302Z,20.00
2022-09-15T07:13:45.396Z,20.20
2022-09-15T07:16:13.301Z,20.50
2022-09-15T07:18:43.306Z,20.70
2022-09-15T07:21:19.837Z,21.00
2022-09-15T07:23:48.038Z,21.20
2022-09-15T07:26:21.401Z,20.80
2022-09-15T07:28:59.241Z,20.40
2022-09-15T07:31:30.958Z,20.00
2022-09-15T07:33:59.229Z,19.90
2022-09-15T07:36:26.710Z,19.80
2022-09-15T07:38:53.528Z,19.90
2022-09-15T07:41:26.492Z,20.20
2022-09-15T07:43:55.867Z,20.80
2022-09-15T07:46:24.366Z,20.80
2022-09-15T07:48:56.040Z,20.80
2022-09-15T07:51:23.442Z,21.10
2022-09-15T07:53:50.956Z,21.60
2022-09-15T07:56:18.837Z,21.90
2022-09-15T07:58:49.667Z,22.00
2022-09-15T08:01:18.672Z,22.10
2022-09-15T08:03:48.809Z,22.10
2022-09-15T08:06:18.792Z,22.40
2022-09-15T08:08:45.643Z,22.90
2022-09-15T08:11:19.112Z,22.40
2022-09-15T08:13:49.215Z,22.40
2022-09-15T08:16:19.612Z,22.50
2022-09-15T08:18:47.124Z,22.80
2022-09-15T08:21:19.963Z,23.00
2022-09-15T08:23:55.838Z,23.00
2022-09-15T08:26:22.939Z,22.90
2022-09-15T08:28:49.646Z,22.90
2022-09-15T08:31:17.529Z,22.40
2022-09-15T08:33:52.384Z,22.60
2022-09-15T08:36:22.147Z,22.90
2022-09-15T08:38:48.786Z,23.20
2022-09-15T08:41:25.878Z,23.70
2022-09-15T08:44:10.682Z,24.00
2022-09-15T08:47:21.988Z,24.20
2022-09-15T08:49:57.585Z,24.30
2022-09-15T08:52:50.192Z,24.20
2022-09-15T08:55:48.475Z,24.80
2022-09-15T08:58:19.364Z,24.20
2022-09-15T09:01:02.130Z,23.50
2022-09-15T09:03:49.419Z,22.50
2022-09-15T09:06:25.257Z,21.90
2022-09-15T09:09:02.554Z,21.20
2022-09-15T09:12:13.510Z,20.50
2022-09-15T09:15:16.062Z,20.40
2022-09-15T09:18:24.418Z,20.50
2022-09-15T09:21:09.446Z,20.70
2022-09-15T09:24:18.190Z,20.90
2022-09-15T09:26:53.685Z,21.00
2022-09-15T09:29:32.311Z,21.30
2022-09-15T09:31:59.824Z,21.10
2022-09-15T09:34:43.941Z,21.00
2022-09-15T09:37:14.105Z,20.70
2022-09-15T09:39:40.905Z,20.70
2022-09-15T09:42:14.816Z,20.80
2022-09-15T09:44:42.310Z,20.80
2022-09-15T09:47:08.959Z,20.70
2022-09-15T09:49:49.482Z,20.30
2022-09-15T09:52:37.648Z,20.30
2022-09-15T09:55:23.446Z,20.40
2022-09-15T09:58:18.559Z,20.40
2022-09-15T10:00:52.299Z,20.30
2022-09-15T10:03:27.078Z,20.00
2022-09-15T10:06:22.100Z,20.00
2022-09-15T10:09:05.873Z,19.90
2022-09-15T10:11:54.885Z,19.60
2022-09-15T10:14:39.114Z,19.60
2022-09-15T10:17:18.490Z,19.60
2022-09-15T10:19:53.080Z,19.60
2022-09-15T10:24:35.688Z,19.60
2022-09-15T10:27:20.852Z,19.30
2022-09-15T10:29:47.933Z,19.20
2022-09-15T10:32:30.243Z,19.10
2022-09-15T10:35:18.075Z,19.20
2022-09-15T10:38:11.942Z,19.00
2022-09-15T10:41:08.463Z,18.70
2022-09-15T10:44:16.407Z,18.60
2022-09-15T10:47:33.899Z,18.60
2022-09-15T10:50:17.223Z,18.70
2022-09-15T10:53:04.338Z,18.90
2022-09-15T10:55:58.742Z,19.10
2022-09-15T10:58:52.705Z,19.30
2022-09-15T11:01:28.575Z,19.30
2022-09-15T11:04:08.384Z,19.70
2022-09-15T11:07:08.381Z,19.90
2022-09-15T11:10:17.966Z,19.90
2022-09-15T11:13:00.158Z,20.00
2022-09-15T11:16:04.216Z,20.10
2022-09-15T11:18:57.369Z,20.20
2022-09-15T11:21:39.616Z,20.10
2022-09-15T11:24:51.553Z,20.10
2022-09-15T11:27:28.337Z,20.10
2022-09-15T11:30:01.738Z,20.00
2022-09-15T11:32:36.747Z,20.00
2022-09-15T11:35:40.542Z,20.00
2022-09-15T11:38:34.153Z,19.90
2022-09-15T11:41:34.527Z,19.70
2022-09-15T11:44:19.397Z,19.40
2022-09-15T11:47:09.544Z,19.10
2022-09-15T11:50:11.666Z,19.00
2022-09-15T11:53:12.054Z,19.20
2022-09-15T11:55:51.319Z,19.40
2022-09-15T11:58:29.256Z,19.40
2022-09-15T12:01:10.919Z,19.40
2022-09-15T12:03:48.297Z,19.70
2022-09-15T12:06:30.001Z,20.00
2022-09-15T12:09:12.196Z,20.20
2022-09-15T12:11:44.945Z,20.30
2022-09-15T12:14:19.484Z,20.20
2022-09-15T12:16:46.497Z,20.30
2022-09-15T12:19:26.011Z,20.20
2022-09-15T12:22:07.107Z,20.20
2022-09-15T12:24:45.787Z,20.20
2022-09-15T12:27:20.838Z,20.20
2022-09-15T12:29:53.223Z,20.10
2022-09-15T12:32:31.861Z,20.00
2022-09-15T12:35:10.142Z,19.90
2022-09-15T12:37:53.004Z,19.70
2022-09-15T12:40:35.767Z,19.50
2022-09-15T12:43:11.404Z,19.40
2022-09-15T12:45:40.481Z,19.20
2022-09-15T12:48:13.372Z,19.00
2022-09-15T12:50:43.024Z,18.80
2022-09-15T12:53:23.436Z,18.60
2022-09-15T12:56:24.850Z,18.50
2022-09-15T12:58:52.606Z,18.50
2022-09-15T13:01:19.593Z,18.40
2022-09-15T13:03:46.475Z,18.40
2022-09-15T13:06:30.377Z,18.50
2022-09-15T13:09:05.962Z,18.50
2022-09-15T13:11:41.963Z,18.70
2022-09-15T13:14:29.077Z,18.90
2022-09-15T13:17:07.803Z,18.90
2022-09-15T13:19:35.849Z,18.90
2022-09-15T13:22:11.492Z,18.90
2022-09-15T13:25:02.008Z,19.10
2022-09-15T13:27:52.370Z,19.40
2022-09-15T13:30:53.628Z,19.50
2022-09-15T13:40:25.273Z,19.90
2022-09-15T13:43:57.679Z,19.80
2022-09-15T13:46:57.548Z,19.70
2022-09-15T13:49:35.633Z,19.70
2022-09-15T13:52:42.666Z,19.70
2022-09-15T13:55:21.354Z,19.40
2022-09-15T14:00:59.711Z,18.80
2022-09-15T14:04:04.921Z,18.80
2022-09-15T14:06:38.850Z,18.90
2022-09-15T14:09:18.907Z,19.10
2022-09-15T14:11:53.327Z,19.10
2022-09-15T14:14:32.151Z,19.10
2022-09-15T14:16:58.886Z,19.10
2022-09-15T14:19:34.421Z,19.00
2022-09-15T14:22:42.788Z,19.10
2022-09-15T14:25:19.230Z,19.10
2022-09-15T14:27:52.534Z,19.40
2022-09-15T14:30:31.850Z,19.40
2022-09-15T14:33:02.744Z,19.60
2022-09-15T14:35:37.806Z,19.70
2022-09-15T14:38:04.615Z,19.70
2022-09-15T14:40:41.157Z,19.90
2022-09-15T14:43:31.047Z,20.10
2022-09-15T14:46:11.085Z,20.20
2022-09-15T14:48:38.122Z,20.20
2022-09-15T14:51:24.417Z,20.20
2022-09-15T14:53:55.572Z,20.10
2022-09-15T14:56:30.861Z,19.90
2022-09-15T14:59:08.799Z,19.50
2022-09-15T15:01:40.432Z,19.40
2022-09-15T15:04:25.678Z,19.30
2022-09-15T15:07:01.686Z,19.30
2022-09-15T15:10:02.088Z,19.10
2022-09-15T15:12:40.576Z,18.90
2022-09-15T15:15:11.052Z,18.90
2022-09-15T15:17:45.116Z,18.90
2022-09-15T15:20:11.636Z,19.00
2022-09-15T15:22:40.172Z,19.00
2022-09-15T15:25:27.487Z,18.90
2022-09-15T15:27:56.433Z,18.80
2022-09-15T15:30:31.954Z,18.80
2022-09-15T15:33:05.688Z,18.80
2022-09-15T15:35:35.516Z,18.70
2022-09-15T15:38:16.555Z,18.70
2022-09-15T15:40:44.784Z,18.70
2022-09-15T15:43:24.435Z,18.70
2022-09-15T15:45:58.308Z,18.80
2022-09-15T15:48:26.457Z,18.70
2022-09-15T15:50:53.378Z,18.70
2022-09-15T15:53:21.212Z,18.50
2022-09-15T15:55:48.016Z,18.50
2022-09-15T15:58:15.736Z,18.50
2022-09-15T16:00:51.503Z,18.40
2022-09-15T16:03:20.164Z,18.40
2022-09-15T16:05:58.948Z,18.30
2022-09-15T16:08:39.577Z,18.30
2022-09-15T16:11:10.045Z,18.30
2022-09-15T16:13:36.709Z,18.20
2022-09-15T16:16:17.129Z,18.20
2022-09-15T16:18:43.898Z,18.10
2022-09-15T16:21:27.793Z,17.90
2022-09-15T16:23:54.377Z,17.80
2022-09-15T16:26:24.270Z,17.70
2022-09-15T16:28:51.198Z,17.60
2022-09-15T16:31:17.805Z,17.60
2022-09-15T16:33:44.597Z,17.60
2022-09-15T16:36:15.334Z,17.60
2022-09-15T16:38:42.839Z,17.60
2022-09-15T16:41:17.702Z,17.60
2022-09-15T16:43:45.765Z,17.50
2022-09-15T16:46:13.913Z,17.40
2022-09-15T16:48:42.750Z,17.30
2022-09-15T16:51:26.716Z,17.30
2022-09-15T16:53:54.038Z,17.30
2022-09-15T16:56:20.638Z,17.30
2022-09-15T16:58:47.567Z,17.30
2022-09-15T17:01:19.243Z,17.30
2022-09-15T17:03:46.331Z,17.20
2022-09-15T17:06:16.700Z,17.00
2022-09-15T17:08:44.024Z,16.90
2022-09-15T17:11:17.213Z,16.80
2022-09-15T17:13:44.951Z,16.80
2022-09-15T17:16:14.749Z,16.70
2022-09-15T17:18:41.474Z,16.70
2022-09-15T17:21:15.013Z,16.70
2022-09-15T17:23:46.414Z,16.70
2022-09-15T17:26:17.962Z,16.60
2022-09-15T17:28:44.697Z,16.60
2022-09-15T17:31:23.231Z,16.60
2022-09-15T17:33:51.249Z,16.50
2022-09-15T17:36:18.956Z,16.50
2022-09-15T17:38:45.893Z,16.50
2022-09-15T17:41:19.228Z,16.50
2022-09-15T17:43:46.689Z,16.60
2022-09-15T17:46:13.783Z,16.60
2022-09-15T17:48:40.511Z,16.60
2022-09-15T17:51:09.906Z,16.70
2022-09-15T17:53:36.994Z,16.70
2022-09-15T17:56:03.625Z,16.70
2022-09-15T17:58:31.725Z,16.70
2022-09-15T18:00:59.222Z,16.60
2022-09-15T18:03:34.723Z,16.60
2022-09-15T18:06:06.287Z,16.60
2022-09-15T18:08:34.185Z,16.60
2022-09-15T18:11:01.506Z,16.60
2022-09-15T18:13:32.189Z,16.60
2022-09-15T18:16:05.420Z,16.60
2022-09-15T18:18:32.293Z,16.50
2022-09-15T18:20:59.018Z,16.50
2022-09-15T18:23:29.270Z,16.50
2022-09-15T18:25:56.506Z,16.50
2022-09-15T18:28:23.188Z,16.40
2022-09-15T18:30:51.637Z,16.30
2022-09-15T18:33:24.265Z,16.20
2022-09-15T18:35:55.453Z,16.20
2022-09-15T18:38:22.634Z,16.10
2022-09-15T18:40:53.986Z,16.10
2022-09-15T18:43:22.122Z,16.00
2022-09-15T18:45:49.423Z,15.90
2022-09-15T18:48:16.351Z,15.80
2022-09-15T18:50:44.731Z,15.80
2022-09-15T18:53:11.873Z,15.70
2022-09-15T18:55:41.955Z,15.80
2022-09-15T18:58:09.519Z,15.70
2022-09-15T19:00:37.902Z,15.70
2022-09-15T19:03:08.062Z,15.70
2022-09-15T19:05:35.267Z,15.60
2022-09-15T19:08:03.485Z,15.60
2022-09-15T19:10:30.198Z,15.50
2022-09-15T19:12:56.863Z,15.50
2022-09-15T19:15:23.886Z,15.50
2022-09-15T19:17:51.568Z,15.60
2022-09-15T19:20:18.406Z,15.50
2022-09-15T19:22:45.938Z,15.50
2022-09-15T19:25:13.358Z,15.50
2022-09-15T19:27:41.154Z,15.50
2022-09-15T19:30:09.903Z,15.40
2022-09-15T19:32:38.195Z,15.40
2022-09-15T19:35:06.331Z,15.30
2022-09-15T19:37:40.286Z,15.20
2022-09-15T19:40:11.520Z,15.20
2022-09-15T19:42:40.183Z,15.20
2022-09-15T19:45:09.599Z,15.10
2022-09-15T19:47:38.034Z,15.10
2022-09-15T19:50:07.308Z,15.00
2022-09-15T19:52:34.030Z,15.00
2022-09-15T19:55:00.731Z,15.00
2022-09-15T19:57:27.454Z,14.90
2022-09-15T19:59:54.088Z,14.90
2022-09-15T20:02:20.748Z,14.90
2022-09-15T20:04:49.753Z,14.90
2022-09-15T20:07:16.474Z,14.90
2022-09-15T20:09:43.216Z,15.00
2022-09-15T20:12:09.982Z,15.00
2022-09-15T20:14:36.762Z,15.00
2022-09-15T20:17:04.024Z,14.90
2022-09-15T20:19:30.680Z,15.00
2022-09-15T20:21:57.301Z,15.00
2022-09-15T20:24:24.520Z,15.00
2022-09-15T20:26:51.633Z,15.00
2022-09-15T20:29:19.162Z,15.00
2022-09-15T20:31:46.597Z,15.00
2022-09-15T20:34:13.804Z,15.00
2022-09-15T20:36:41.089Z,15.00
2022-09-15T20:39:12.799Z,15.00
2022-09-15T20:41:42.069Z,15.10
2022-09-15T20:44:09.263Z,15.10
2022-09-15T20:46:36.212Z,15.10
2022-09-15T20:49:04.209Z,15.10
2022-09-15T20:51:32.293Z,15.10
2022-09-15T20:54:01.064Z,15.10
2022-09-15T20:56:29.658Z,15.00
2022-09-15T20:58:59.080Z,15.00
2022-09-15T21:01:34.494Z,15.00
2022-09-15T21:04:01.520Z,15.00
2022-09-15T21:06:28.798Z,15.00
2022-09-15T21:08:56.570Z,15.00
2022-09-15T21:11:25.189Z,14.90
2022-09-15T21:13:52.344Z,14.90
2022-09-15T21:16:26.098Z,14.90
2022-09-15T21:18:53.284Z,14.90
2022-09-15T21:21:23.588Z,14.80
2022-09-15T21:23:58.487Z,14.80
2022-09-15T21:26:28.520Z,14.80
2022-09-15T21:28:56.291Z,14.80
2022-09-15T21:31:31.759Z,14.80
2022-09-15T21:33:59.331Z,14.80
2022-09-15T21:36:30.219Z,14.80
2022-09-15T21:38:58.676Z,14.80
2022-09-15T21:41:32.111Z,14.90
2022-09-15T21:44:00.504Z,14.90
2022-09-15T21:46:30.411Z,14.80
2022-09-15T21:48:59.635Z,14.80
2022-09-15T21:51:28.888Z,14.80
2022-09-15T21:53:58.336Z,14.80
2022-09-15T21:56:27.507Z,14.80
2022-09-15T21:58:54.482Z,14.80
2022-09-15T22:01:25.552Z,14.80
2022-09-15T22:03:55.675Z,14.80
2022-09-15T22:06:31.360Z,14.80
2022-09-15T22:09:00.407Z,14.80
2022-09-15T22:11:27.548Z,14.70
2022-09-15T22:13:54.406Z,14.70
2022-09-15T22:16:24.538Z,14.70
2022-09-15T22:18:51.952Z,14.70
2022-09-15T22:21:27.839Z,14.60
2022-09-15T22:23:57.293Z,14.60
2022-09-15T22:26:27.416Z,14.50
2022-09-15T22:28:55.366Z,14.50
2022-09-15T22:31:23.770Z,14.50
2022-09-15T22:33:50.834Z,14.50
2022-09-15T22:36:25.121Z,14.50
2022-09-15T22:38:55.582Z,14.50
2022-09-15T22:41:25.646Z,14.50
2022-09-15T22:43:53.030Z,14.40
2022-09-15T22:46:20.374Z,14.40
2022-09-15T22:48:47.432Z,14.50
2022-09-15T22:51:14.889Z,14.40
2022-09-15T22:53:42.113Z,14.40
2022-09-15T22:56:23.102Z,14.40
2022-09-15T22:58:50.263Z,14.40
2022-09-15T23:01:26.006Z,14.30
2022-09-15T23:03:55.962Z,14.30
2022-09-15T23:06:24.029Z,14.30
2022-09-15T23:08:53.496Z,14.30
2022-09-15T23:11:21.217Z,14.30
2022-09-15T23:13:48.509Z,14.30
2022-09-15T23:16:15.493Z,14.30
2022-09-15T23:18:42.796Z,14.30
2022-09-15T23:21:11.250Z,14.30
2022-09-15T23:23:40.735Z,14.30
2022-09-15T23:26:11.289Z,14.30
2022-09-15T23:28:39.065Z,14.20
2022-09-15T23:31:06.943Z,14.10
2022-09-15T23:33:40.483Z,14.10
2022-09-15T23:36:11.049Z,14.00
2022-09-15T23:38:39.852Z,13.90
2022-09-15T23:41:08.020Z,13.80
2022-09-15T23:43:35.242Z,13.80
2022-09-15T23:46:02.504Z,13.80
2022-09-15T23:48:31.508Z,13.80
2022-09-15T23:50:59.280Z,13.80
2022-09-15T23:53:30.443Z,13.70
2022-09-15T23:55:57.206Z,13.70
2022-09-15T23:58:24.563Z,13.70
